createdAt,value
2022-12-03T00:00:35.157Z,2.40
2022-12-03T00:03:39.088Z,2.39
2022-12-03T00:06:41.717Z,2.36
2022-12-03T00:09:44.252Z,2.31
2022-12-03T00:12:46.847Z,2.32
2022-12-03T00:15:49.459Z,2.32
2022-12-03T00:18:53.340Z,2.34
2022-12-03T00:21:55.823Z,2.36
2022-12-03T00:24:58.329Z,2.36
2022-12-03T00:28:00.866Z,2.34
2022-12-03T00:31:03.435Z,2.33
2022-12-03T00:34:07.326Z,2.32
2022-12-03T00:37:09.841Z,2.31
2022-12-03T00:40:12.984Z,2.32
2022-12-03T00:43:15.485Z,2.32
2022-12-03T00:46:21.356Z,2.32
2022-12-03T00:49:25.661Z,2.18
2022-12-03T00:52:28.200Z,2.32
2022-12-03T00:55:30.750Z,2.29
2022-12-03T00:58:33.265Z,2.27
2022-12-03T01:01:35.885Z,2.25
2022-12-03T01:04:39.888Z,2.26
2022-12-03T01:07:42.501Z,2.26
2022-12-03T01:10:45.034Z,2.27
2022-12-03T01:13:47.527Z,2.25
2022-12-03T01:16:50.077Z,2.27
2022-12-03T01:19:53.998Z,2.28
2022-12-03T01:22:56.482Z,2.28
2022-12-03T01:25:58.973Z,2.26
2022-12-03T01:29:01.516Z,2.31
2022-12-03T01:32:19.419Z,2.32
2022-12-03T01:35:23.218Z,2.34
2022-12-03T01:38:25.766Z,2.30
2022-12-03T01:41:28.491Z,2.29
2022-12-03T01:44:31.805Z,2.29
2022-12-03T01:47:35.328Z,2.31
2022-12-03T01:50:39.197Z,2.32
2022-12-03T01:53:41.873Z,2.32
2022-12-03T01:56:44.474Z,2.32
2022-12-03T01:59:46.963Z,2.34
2022-12-03T02:02:50.385Z,2.33
2022-12-03T02:05:54.298Z,2.33
2022-12-03T02:08:59.634Z,2.36
2022-12-03T02:12:02.185Z,2.36
2022-12-03T02:15:05.730Z,2.37
2022-12-03T02:18:08.289Z,2.38
2022-12-03T02:21:14.166Z,2.38
2022-12-03T02:24:19.219Z,2.39
2022-12-03T02:27:23.081Z,2.39
2022-12-03T02:30:26.230Z,2.39
2022-12-03T02:33:28.769Z,2.40
2022-12-03T02:36:31.897Z,2.39
2022-12-03T02:39:35.025Z,2.40
2022-12-03T02:42:39.237Z,2.42
2022-12-03T02:45:43.185Z,2.43
2022-12-03T02:48:45.683Z,2.44
2022-12-03T02:51:48.160Z,2.44
2022-12-03T02:54:50.705Z,2.42
2022-12-03T02:57:54.803Z,2.45
2022-12-03T03:00:57.407Z,2.42
2022-12-03T03:04:00.610Z,2.44
2022-12-03T03:07:03.110Z,2.46
2022-12-03T03:10:06.440Z,2.46
2022-12-03T03:13:11.141Z,2.46
2022-12-03T03:16:13.742Z,2.47
2022-12-03T03:19:16.322Z,2.49
2022-12-03T03:22:18.858Z,2.48
2022-12-03T03:25:22.367Z,2.49
2022-12-03T03:28:26.463Z,2.50
2022-12-03T03:31:28.961Z,2.50
2022-12-03T03:34:31.532Z,2.50
2022-12-03T03:37:34.062Z,2.52
2022-12-03T03:40:36.980Z,2.53
2022-12-03T03:43:40.858Z,2.54
2022-12-03T03:46:43.598Z,2.52
2022-12-03T03:49:47.865Z,2.55
2022-12-03T03:52:50.353Z,2.54
2022-12-03T03:55:52.847Z,2.56
2022-12-03T03:58:57.300Z,2.56
2022-12-03T04:01:59.831Z,2.56
2022-12-03T04:05:02.395Z,2.59
2022-12-03T04:08:05.253Z,2.58
2022-12-03T04:11:25.400Z,2.61
2022-12-03T04:14:29.201Z,2.62
2022-12-03T04:17:31.797Z,2.64
2022-12-03T04:20:34.336Z,2.66
2022-12-03T04:23:35.906Z,2.66
2022-12-03T04:26:55.877Z,2.68
2022-12-03T04:29:59.692Z,2.68
2022-12-03T04:33:20.144Z,2.69
2022-12-03T04:36:22.695Z,2.68
2022-12-03T04:39:25.296Z,2.71
2022-12-03T04:42:27.843Z,2.68
2022-12-03T04:45:31.749Z,2.76
2022-12-03T04:48:34.405Z,2.75
2022-12-03T04:51:36.906Z,2.75
2022-12-03T04:54:39.563Z,2.75
2022-12-03T04:57:42.073Z,2.78
2022-12-03T05:00:45.913Z,2.81
2022-12-03T05:03:48.447Z,2.79
2022-12-03T05:06:50.996Z,2.81
2022-12-03T05:09:53.543Z,2.82
2022-12-03T05:12:56.028Z,2.83
2022-12-03T05:15:59.886Z,2.83
2022-12-03T05:19:02.534Z,2.85
2022-12-03T05:22:05.069Z,2.84
2022-12-03T05:25:08.213Z,2.85
2022-12-03T05:28:10.721Z,2.86
2022-12-03T05:31:14.671Z,2.88
2022-12-03T05:34:17.216Z,2.88
2022-12-03T05:37:19.791Z,2.89
2022-12-03T05:40:22.378Z,2.90
2022-12-03T05:43:24.161Z,2.89
2022-12-03T05:46:28.121Z,2.91
2022-12-03T05:49:30.660Z,2.92
2022-12-03T05:52:33.170Z,2.92
2022-12-03T05:55:35.645Z,2.90
2022-12-03T05:58:38.229Z,2.89
2022-12-03T06:01:42.073Z,2.86
2022-12-03T06:04:44.565Z,2.85
2022-12-03T06:07:47.376Z,2.87
2022-12-03T06:10:50.015Z,2.89
2022-12-03T06:13:52.919Z,2.86
2022-12-03T06:16:56.802Z,2.87
2022-12-03T06:19:59.366Z,2.88
2022-12-03T06:23:01.830Z,2.89
2022-12-03T06:26:04.320Z,2.90
2022-12-03T06:29:06.857Z,2.87
2022-12-03T06:32:10.801Z,2.85
2022-12-03T06:35:13.377Z,2.87
2022-12-03T06:38:15.918Z,2.86
2022-12-03T06:41:18.424Z,2.85
2022-12-03T06:44:21.465Z,2.87
2022-12-03T06:47:25.369Z,2.87
2022-12-03T06:50:27.981Z,2.86
2022-12-03T06:53:30.520Z,2.85
2022-12-03T06:56:37.817Z,2.87
2022-12-03T06:59:41.717Z,2.86
2022-12-03T07:02:45.689Z,2.87
2022-12-03T07:05:48.252Z,2.86
2022-12-03T07:08:50.789Z,2.86
2022-12-03T07:11:53.358Z,2.89
2022-12-03T07:14:56.388Z,2.91
2022-12-03T07:18:00.447Z,2.90
2022-12-03T07:21:03.059Z,2.91
2022-12-03T07:24:05.963Z,2.92
2022-12-03T07:27:08.489Z,2.91
2022-12-03T07:30:12.539Z,2.87
2022-12-03T07:33:16.387Z,2.88
2022-12-03T07:36:18.861Z,2.89
2022-12-03T07:39:21.352Z,2.91
2022-12-03T07:42:23.931Z,2.89
2022-12-03T07:45:26.500Z,2.88
2022-12-03T07:48:30.326Z,2.86
2022-12-03T07:51:32.821Z,2.88
2022-12-03T07:54:35.385Z,2.73
2022-12-03T07:57:37.941Z,2.86
2022-12-03T08:00:40.479Z,2.86
2022-12-03T08:03:44.328Z,2.85
2022-12-03T08:06:46.857Z,2.87
2022-12-03T08:09:49.414Z,2.89
2022-12-03T08:12:52.528Z,2.90
2022-12-03T08:15:56.557Z,2.74
2022-12-03T08:19:00.496Z,2.85
2022-12-03T08:22:03.021Z,2.86
2022-12-03T08:25:07.642Z,2.87
2022-12-03T08:28:13.484Z,2.85
2022-12-03T08:31:19.926Z,2.84
2022-12-03T08:34:24.564Z,2.81
2022-12-03T08:37:27.115Z,2.80
2022-12-03T08:40:35.103Z,2.80
2022-12-03T08:43:41.876Z,2.78
2022-12-03T08:46:44.391Z,2.76
2022-12-03T08:49:49.079Z,2.74
2022-12-03T08:52:51.625Z,2.73
2022-12-03T08:55:54.757Z,2.72
2022-12-03T08:58:58.357Z,2.69
2022-12-03T09:02:00.877Z,2.66
2022-12-03T09:05:11.928Z,2.69
2022-12-03T09:08:14.507Z,2.68
2022-12-03T09:11:17.085Z,2.68
2022-12-03T09:14:21.094Z,2.68
2022-12-03T09:17:23.697Z,2.67
2022-12-03T09:20:27.544Z,2.65
2022-12-03T09:23:30.058Z,2.64
2022-12-03T09:26:32.613Z,2.65
2022-12-03T09:29:35.108Z,2.65
2022-12-03T09:32:37.658Z,2.63
2022-12-03T09:35:41.529Z,2.64
2022-12-03T09:38:47.599Z,2.64
2022-12-03T09:41:50.595Z,2.65
2022-12-03T09:44:53.535Z,2.65
2022-12-03T09:47:56.178Z,2.64
2022-12-03T09:51:00.079Z,2.66
2022-12-03T09:54:07.660Z,2.68
2022-12-03T09:57:12.188Z,2.69
2022-12-03T10:00:18.675Z,2.64
2022-12-03T10:03:26.498Z,2.57
2022-12-03T10:06:33.444Z,2.65
2022-12-03T10:09:36.021Z,2.66
2022-12-03T10:12:38.541Z,2.67
2022-12-03T10:15:41.079Z,2.65
2022-12-03T10:29:57.026Z,14.25
2022-12-03T10:33:02.574Z,14.81
2022-12-03T10:36:15.734Z,15.36
2022-12-03T10:39:18.277Z,15.76
2022-12-03T10:42:20.893Z,16.10
2022-12-03T10:45:24.848Z,16.38
2022-12-03T10:48:27.460Z,16.55
2022-12-03T10:51:29.997Z,16.71
2022-12-03T10:54:32.785Z,16.87
2022-12-03T10:57:35.336Z,17.27
2022-12-03T12:27:33.289Z,17.29
2022-12-03T12:30:35.756Z,17.20
2022-12-03T12:39:33.937Z,17.64
2022-12-03T12:42:37.220Z,17.80
2022-12-03T12:45:41.061Z,17.83
2022-12-03T12:52:20.438Z,18.26
